createdAt,value
2022-11-09T00:00:48.862Z,96.04
2022-11-09T00:03:15.272Z,96.08
2022-11-09T00:05:41.715Z,95.83
2022-11-09T00:08:08.485Z,96.56
2022-11-09T00:10:34.797Z,96.69
2022-11-09T00:13:01.235Z,96.43
2022-11-09T00:15:27.607Z,97.59
2022-11-09T00:17:53.961Z,97.09
2022-11-09T00:20:20.274Z,97.23
2022-11-09T00:22:49.759Z,97.57
2022-11-09T00:25:16.149Z,97.32
2022-11-09T00:27:42.541Z,98.16
2022-11-09T00:30:10.476Z,98.21
2022-11-09T00:32:36.793Z,96.68
2022-11-09T00:35:03.160Z,96.83
2022-11-09T00:37:29.913Z,96.99
2022-11-09T00:39:56.496Z,96.26
2022-11-09T00:42:22.813Z,96.92
2022-11-09T00:44:49.141Z,96.48
2022-11-09T00:47:15.484Z,97.13
2022-11-09T00:49:41.814Z,96.46
2022-11-09T00:52:08.386Z,96.24
2022-11-09T00:54:34.784Z,96.59
2022-11-09T00:57:01.119Z,96.96
2022-11-09T00:59:27.436Z,97.19
2022-11-09T01:01:53.767Z,97.04
2022-11-09T01:04:20.152Z,96.95
2022-11-09T01:06:46.542Z,96.97
2022-11-09T01:09:12.905Z,96.99
2022-11-09T01:11:39.243Z,97.71
2022-11-09T01:14:05.559Z,97.66
2022-11-09T01:16:31.962Z,97.67
2022-11-09T01:18:58.360Z,97.97
2022-11-09T01:21:25.082Z,98.02
2022-11-09T01:23:51.403Z,98.67
2022-11-09T01:26:17.734Z,98.45
2022-11-09T01:28:44.072Z,98.96
2022-11-09T01:31:11.614Z,99.82
2022-11-09T01:33:39.251Z,100.00
2022-11-09T01:36:06.328Z,100.00
2022-11-09T01:38:32.668Z,100.00
2022-11-09T01:40:58.985Z,100.00
2022-11-09T01:43:25.355Z,100.00
2022-11-09T01:45:52.610Z,100.00
2022-11-09T01:48:20.296Z,100.00
2022-11-09T01:50:53.937Z,100.00
2022-11-09T01:53:21.142Z,100.00
2022-11-09T01:55:48.599Z,100.00
2022-11-09T01:58:16.044Z,100.00
2022-11-09T02:00:43.015Z,100.00
2022-11-09T02:03:10.553Z,100.00
2022-11-09T02:05:36.973Z,100.00
2022-11-09T02:08:03.321Z,100.00
2022-11-09T02:10:31.973Z,100.00
2022-11-09T02:12:58.305Z,100.00
2022-11-09T02:15:24.673Z,100.00
2022-11-09T02:17:54.811Z,100.00
2022-11-09T02:20:21.972Z,100.00
2022-11-09T02:22:48.292Z,100.00
2022-11-09T02:25:14.705Z,100.00
2022-11-09T02:27:41.404Z,100.00
2022-11-09T02:30:08.058Z,100.00
2022-11-09T02:32:34.430Z,100.00
2022-11-09T02:35:00.740Z,100.00
2022-11-09T02:37:27.149Z,100.00
2022-11-09T02:39:53.476Z,100.00
2022-11-09T02:42:21.612Z,100.00
2022-11-09T02:44:49.531Z,100.00
2022-11-09T02:47:15.855Z,100.00
2022-11-09T02:49:42.425Z,100.00
2022-11-09T02:52:08.749Z,100.00
2022-11-09T02:54:35.201Z,100.00
2022-11-09T02:57:01.542Z,100.00
2022-11-09T02:59:27.866Z,100.00
2022-11-09T03:01:54.193Z,100.00
2022-11-09T03:04:20.506Z,100.00
2022-11-09T03:06:46.896Z,100.00
2022-11-09T03:09:13.317Z,100.00
2022-11-09T03:11:39.990Z,100.00
2022-11-09T03:14:06.305Z,100.00
2022-11-09T03:16:32.730Z,100.00
2022-11-09T03:18:59.123Z,100.00
2022-11-09T03:21:25.451Z,100.00
2022-11-09T03:23:51.766Z,100.00
2022-11-09T03:26:18.134Z,100.00
2022-11-09T03:28:44.481Z,100.00
2022-11-09T03:31:11.106Z,100.00
2022-11-09T03:33:37.443Z,100.00
2022-11-09T03:36:03.910Z,100.00
2022-11-09T03:38:30.228Z,100.00
2022-11-09T03:40:56.567Z,100.00
2022-11-09T03:43:23.263Z,100.00
2022-11-09T03:45:49.841Z,100.00
2022-11-09T03:48:16.606Z,100.00
2022-11-09T03:50:43.222Z,100.00
2022-11-09T03:53:09.623Z,100.00
2022-11-09T03:55:36.034Z,100.00
2022-11-09T03:58:02.571Z,100.00
2022-11-09T04:00:28.952Z,100.00
2022-11-09T04:02:55.282Z,100.00
2022-11-09T04:05:21.625Z,100.00
2022-11-09T04:07:48.642Z,100.00
2022-11-09T04:10:15.323Z,100.00
2022-11-09T04:12:41.634Z,100.00
2022-11-09T04:15:08.178Z,100.00
2022-11-09T04:17:34.637Z,100.00
2022-11-09T04:20:01.868Z,100.00
2022-11-09T04:22:28.211Z,100.00
2022-11-09T04:24:54.519Z,100.00
2022-11-09T04:27:20.927Z,100.00
2022-11-09T04:29:47.255Z,100.00
2022-11-09T04:32:13.982Z,100.00
2022-11-09T04:34:41.670Z,100.00
2022-11-09T04:37:08.488Z,100.00
2022-11-09T04:39:34.797Z,100.00
2022-11-09T04:42:01.199Z,100.00
2022-11-09T04:44:27.524Z,100.00
2022-11-09T04:46:53.858Z,100.00
2022-11-09T04:49:20.175Z,100.00
2022-11-09T04:51:46.499Z,100.00
2022-11-09T04:54:12.856Z,100.00
2022-11-09T04:56:39.183Z,100.00
2022-11-09T04:59:05.521Z,100.00
2022-11-09T05:01:31.845Z,100.00
2022-11-09T05:03:58.250Z,100.00
2022-11-09T05:06:33.751Z,100.00
2022-11-09T05:09:06.688Z,100.00
2022-11-09T05:11:33.328Z,100.00
2022-11-09T05:14:00.817Z,100.00
2022-11-09T05:16:28.012Z,100.00
2022-11-09T05:18:54.334Z,100.00
2022-11-09T05:21:20.702Z,100.00
2022-11-09T05:23:59.275Z,100.00
2022-11-09T05:26:33.569Z,100.00
2022-11-09T05:29:00.627Z,100.00
2022-11-09T05:31:27.176Z,100.00
2022-11-09T05:33:53.598Z,100.00
2022-11-09T05:36:20.053Z,100.00
2022-11-09T05:38:46.486Z,100.00
2022-11-09T05:41:12.869Z,100.00
2022-11-09T05:43:39.243Z,100.00
2022-11-09T05:46:06.857Z,100.00
2022-11-09T05:48:33.330Z,100.00
2022-11-09T05:51:03.241Z,100.00
2022-11-09T05:53:29.870Z,100.00
2022-11-09T05:55:56.181Z,100.00
2022-11-09T05:58:22.556Z,100.00
2022-11-09T06:00:48.884Z,100.00
2022-11-09T06:03:15.236Z,100.00
2022-11-09T06:05:41.602Z,100.00
2022-11-09T06:08:08.900Z,100.00
2022-11-09T06:10:35.320Z,100.00
2022-11-09T06:13:01.742Z,100.00
2022-11-09T06:15:28.107Z,100.00
2022-11-09T06:17:54.794Z,100.00
2022-11-09T06:20:21.262Z,100.00
2022-11-09T06:22:58.676Z,100.00
2022-11-09T06:25:28.057Z,100.00
2022-11-09T06:27:55.004Z,100.00
2022-11-09T06:30:21.433Z,100.00
2022-11-09T06:32:47.754Z,100.00
2022-11-09T06:35:14.413Z,100.00
2022-11-09T06:37:40.788Z,100.00
2022-11-09T06:40:07.450Z,100.00
2022-11-09T06:42:33.786Z,100.00
2022-11-09T06:45:00.120Z,100.00
2022-11-09T06:47:27.522Z,100.00
2022-11-09T06:49:53.856Z,100.00
2022-11-09T06:52:20.195Z,100.00
2022-11-09T06:54:46.520Z,100.00
2022-11-09T06:57:12.899Z,100.00
2022-11-09T06:59:39.222Z,100.00
2022-11-09T07:02:05.564Z,100.00
2022-11-09T07:04:32.058Z,100.00
2022-11-09T07:06:58.433Z,100.00
2022-11-09T07:09:24.789Z,100.00
2022-11-09T07:11:51.111Z,100.00
2022-11-09T07:14:17.486Z,100.00
2022-11-09T07:16:43.815Z,100.00
2022-11-09T07:19:11.338Z,100.00
2022-11-09T07:21:37.708Z,100.00
2022-11-09T07:24:04.023Z,100.00
2022-11-09T07:26:30.444Z,100.00
2022-11-09T07:28:56.764Z,100.00
2022-11-09T07:31:23.217Z,100.00
2022-11-09T07:33:49.683Z,100.00
2022-11-09T07:36:21.171Z,100.00
2022-11-09T07:38:47.977Z,100.00
2022-11-09T07:41:14.302Z,100.00
2022-11-09T07:43:40.871Z,100.00
2022-11-09T07:46:07.268Z,100.00
2022-11-09T07:48:33.787Z,100.00
2022-11-09T07:51:00.818Z,100.00
2022-11-09T07:53:27.134Z,100.00
2022-11-09T07:55:57.385Z,100.00
2022-11-09T07:58:23.720Z,100.00
2022-11-09T08:00:50.078Z,100.00
2022-11-09T08:03:18.157Z,100.00
2022-11-09T08:05:44.999Z,100.00
2022-11-09T08:08:11.495Z,100.00
2022-11-09T08:10:37.925Z,100.00
2022-11-09T08:13:11.916Z,100.00
2022-11-09T08:15:38.510Z,100.00
2022-11-09T08:18:05.876Z,100.00
2022-11-09T08:20:32.479Z,100.00
2022-11-09T08:23:03.597Z,100.00
2022-11-09T08:25:30.993Z,100.00
2022-11-09T08:27:57.350Z,100.00
2022-11-09T08:30:23.803Z,100.00
2022-11-09T08:32:50.292Z,100.00
2022-11-09T08:35:18.301Z,100.00
2022-11-09T08:37:45.113Z,100.00
2022-11-09T08:40:11.438Z,100.00
2022-11-09T08:42:38.010Z,100.00
2022-11-09T08:45:04.632Z,100.00
2022-11-09T08:47:30.962Z,100.00
2022-11-09T08:49:57.328Z,100.00
2022-11-09T08:52:23.697Z,100.00
2022-11-09T08:54:50.013Z,100.00
2022-11-09T08:57:17.560Z,100.00
2022-11-09T08:59:43.902Z,100.00
2022-11-09T09:02:10.467Z,100.00
2022-11-09T09:04:36.817Z,100.00
2022-11-09T09:07:03.194Z,100.00
2022-11-09T09:09:29.609Z,100.00
2022-11-09T09:11:55.926Z,100.00
2022-11-09T09:14:22.237Z,100.00
2022-11-09T09:16:48.576Z,100.00
2022-11-09T09:19:14.913Z,100.00
2022-11-09T09:21:41.245Z,100.00
2022-11-09T09:24:07.754Z,100.00
2022-11-09T09:26:34.105Z,100.00
2022-11-09T09:29:00.575Z,100.00
2022-11-09T09:31:27.380Z,100.00
2022-11-09T09:33:53.712Z,100.00
2022-11-09T09:36:20.831Z,100.00
2022-11-09T09:38:47.305Z,100.00
2022-11-09T09:41:29.000Z,100.00
2022-11-09T09:43:56.850Z,100.00
2022-11-09T09:46:35.365Z,100.00
2022-11-09T09:49:03.720Z,100.00
2022-11-09T09:51:37.997Z,100.00
2022-11-09T09:54:12.536Z,100.00
2022-11-09T09:56:39.449Z,100.00
2022-11-09T09:59:18.372Z,100.00
2022-11-09T10:01:44.773Z,100.00
2022-11-09T10:04:18.319Z,100.00
2022-11-09T10:06:47.791Z,100.00
2022-11-09T10:09:32.971Z,100.00
2022-11-09T10:12:01.325Z,100.00
2022-11-09T10:14:33.940Z,100.00
2022-11-09T10:17:15.738Z,100.00
2022-11-09T10:19:48.068Z,100.00
2022-11-09T10:22:17.419Z,100.00
2022-11-09T10:27:36.531Z,100.00
2022-11-09T10:30:07.754Z,100.00
2022-11-09T10:32:34.121Z,100.00
2022-11-09T10:35:03.497Z,100.00
2022-11-09T10:37:43.454Z,100.00
2022-11-09T10:40:13.149Z,100.00
2022-11-09T10:42:39.502Z,100.00
2022-11-09T10:45:13.621Z,100.00
2022-11-09T10:47:50.561Z,100.00
2022-11-09T10:50:23.006Z,100.00
2022-11-09T10:52:49.422Z,100.00
2022-11-09T10:55:15.738Z,100.00
2022-11-09T10:57:50.293Z,100.00
2022-11-09T11:00:17.435Z,100.00
2022-11-09T11:02:45.236Z,100.00
2022-11-09T11:05:17.667Z,100.00
2022-11-09T11:07:44.240Z,100.00
2022-11-09T11:10:16.863Z,100.00
2022-11-09T11:12:43.568Z,100.00
2022-11-09T11:15:22.037Z,100.00
2022-11-09T11:17:48.591Z,100.00
2022-11-09T11:20:25.523Z,100.00
2022-11-09T11:22:55.912Z,100.00
2022-11-09T11:25:22.468Z,100.00
2022-11-09T11:27:50.409Z,100.00
2022-11-09T11:30:22.844Z,100.00
2022-11-09T11:32:50.912Z,100.00
2022-11-09T11:35:23.699Z,100.00
2022-11-09T11:37:56.012Z,100.00
2022-11-09T11:40:42.596Z,100.00
2022-11-09T11:43:15.151Z,100.00
2022-11-09T11:45:48.105Z,100.00
2022-11-09T11:48:32.811Z,100.00
2022-11-09T11:51:02.653Z,100.00
2022-11-09T11:53:33.247Z,100.00
2022-11-09T11:56:02.605Z,100.00
2022-11-09T11:58:29.120Z,100.00
2022-11-09T12:00:58.769Z,100.00
2022-11-09T12:04:00.692Z,100.00
2022-11-09T12:06:45.515Z,100.00
2022-11-09T12:09:11.839Z,100.00
2022-11-09T12:11:51.111Z,100.00
2022-11-09T12:14:33.161Z,100.00
2022-11-09T12:17:07.032Z,100.00
2022-11-09T12:19:45.734Z,100.00
2022-11-09T12:22:18.178Z,100.00
2022-11-09T12:25:09.696Z,100.00
2022-11-09T12:27:50.599Z,100.00
2022-11-09T12:30:40.368Z,100.00
2022-11-09T12:33:14.270Z,99.61
2022-11-09T12:35:45.841Z,95.47
2022-11-09T12:38:12.186Z,94.81
2022-11-09T12:41:02.207Z,95.85
2022-11-09T12:43:45.725Z,95.79
2022-11-09T12:46:12.046Z,94.88
2022-11-09T12:48:38.360Z,94.68
2022-11-09T12:51:04.746Z,94.33
2022-11-09T12:53:35.142Z,93.69
2022-11-09T12:56:02.682Z,90.43
2022-11-09T12:58:32.464Z,90.97
2022-11-09T13:00:59.839Z,88.59
2022-11-09T13:03:27.588Z,88.35
2022-11-09T13:06:20.330Z,87.70
2022-11-09T13:09:07.520Z,85.56
2022-11-09T13:11:41.303Z,84.63
2022-11-09T13:14:22.903Z,83.52
2022-11-09T13:16:49.643Z,83.04
2022-11-09T13:19:34.711Z,82.44
2022-11-09T13:22:23.729Z,84.83
2022-11-09T13:24:50.031Z,85.62
2022-11-09T13:27:36.617Z,86.01
2022-11-09T13:30:03.219Z,84.74
2022-11-09T13:32:30.041Z,84.90
2022-11-09T13:34:59.784Z,86.44
2022-11-09T13:37:34.783Z,86.81
2022-11-09T13:40:01.099Z,85.58
2022-11-09T13:42:30.523Z,83.97
2022-11-09T13:45:17.588Z,79.52
2022-11-09T13:47:49.669Z,80.27
2022-11-09T13:50:19.482Z,80.11
2022-11-09T13:52:52.701Z,78.60
2022-11-09T13:55:39.302Z,79.04
2022-11-09T13:58:15.929Z,77.99
2022-11-09T14:00:44.979Z,80.20
2022-11-09T14:03:24.916Z,80.28
2022-11-09T14:05:52.406Z,81.07
2022-11-09T14:08:20.922Z,82.03
2022-11-09T14:11:13.759Z,82.64
2022-11-09T14:13:40.051Z,81.50
2022-11-09T14:16:09.332Z,81.30
2022-11-09T14:18:55.116Z,82.86
2022-11-09T14:21:24.669Z,79.94
2022-11-09T14:23:51.092Z,81.14
2022-11-09T14:26:18.766Z,81.97
2022-11-09T14:28:45.098Z,81.52
2022-11-09T14:31:24.502Z,84.80
2022-11-09T14:34:04.002Z,83.96
2022-11-09T14:36:30.551Z,85.87
2022-11-09T14:38:58.447Z,89.18
2022-11-09T14:41:25.646Z,84.51
2022-11-09T14:43:52.398Z,89.63
2022-11-09T14:46:19.705Z,87.26
2022-11-09T14:48:56.256Z,86.41
2022-11-09T14:51:24.494Z,85.52
2022-11-09T14:53:50.921Z,84.95
2022-11-09T14:56:18.275Z,85.63
2022-11-09T14:58:44.667Z,86.20
2022-11-09T15:01:17.055Z,86.74
2022-11-09T15:03:43.865Z,87.03
2022-11-09T15:06:14.013Z,85.33
2022-11-09T15:08:50.722Z,84.21
2022-11-09T15:11:17.056Z,84.43
2022-11-09T15:13:43.374Z,85.80
2022-11-09T15:16:13.279Z,85.38
2022-11-09T15:18:42.114Z,87.66
2022-11-09T15:21:32.616Z,90.49
2022-11-09T15:24:08.275Z,93.52
2022-11-09T15:26:43.187Z,94.56
2022-11-09T15:29:28.405Z,95.58
2022-11-09T15:32:01.515Z,95.43
2022-11-09T15:34:29.688Z,94.72
2022-11-09T15:36:56.017Z,91.24
2022-11-09T15:39:22.675Z,91.32
2022-11-09T15:41:49.002Z,94.83
2022-11-09T15:44:15.399Z,87.85
2022-11-09T15:46:43.811Z,92.64
2022-11-09T15:49:13.746Z,96.47
2022-11-09T15:51:40.075Z,93.15
2022-11-09T15:54:06.384Z,93.11
2022-11-09T15:56:32.735Z,96.39
2022-11-09T15:59:00.091Z,95.00
2022-11-09T16:01:26.535Z,86.91
2022-11-09T16:03:52.862Z,88.07
2022-11-09T16:06:19.331Z,86.76
2022-11-09T16:08:49.007Z,90.94
2022-11-09T16:11:15.337Z,93.27
2022-11-09T16:13:41.661Z,91.71
2022-11-09T16:16:08.353Z,97.71
2022-11-09T16:18:34.696Z,92.89
2022-11-09T16:21:08.368Z,92.17
2022-11-09T16:23:35.252Z,97.91
2022-11-09T16:26:05.704Z,99.56
2022-11-09T16:28:32.257Z,99.95
2022-11-09T16:30:58.589Z,100.00
2022-11-09T16:33:24.911Z,99.64
2022-11-09T16:35:51.270Z,100.00
2022-11-09T16:38:17.804Z,100.00
2022-11-09T16:40:44.410Z,100.00
2022-11-09T16:43:10.743Z,100.00
2022-11-09T16:45:37.124Z,100.00
2022-11-09T16:48:04.105Z,100.00
2022-11-09T16:50:30.434Z,100.00
2022-11-09T16:52:56.886Z,100.00
2022-11-09T16:55:23.256Z,100.00
2022-11-09T16:57:50.102Z,95.63
2022-11-09T17:00:19.678Z,99.23
2022-11-09T17:02:45.998Z,96.79
2022-11-09T17:05:12.327Z,98.92
2022-11-09T17:07:42.767Z,95.13
2022-11-09T17:10:09.543Z,93.57
2022-11-09T17:12:35.887Z,91.35
2022-11-09T17:15:02.240Z,92.09
2022-11-09T17:17:28.599Z,92.53
2022-11-09T17:19:54.924Z,93.69
2022-11-09T17:22:21.337Z,93.54
2022-11-09T17:24:47.711Z,97.25
2022-11-09T17:27:14.044Z,95.69
2022-11-09T17:29:40.357Z,96.81
2022-11-09T17:32:07.302Z,94.39
2022-11-09T17:34:33.692Z,93.19
2022-11-09T17:37:05.043Z,91.38
2022-11-09T17:39:32.013Z,91.45
2022-11-09T17:41:58.341Z,94.10
2022-11-09T17:44:24.674Z,92.29
2022-11-09T17:46:51.004Z,90.61
2022-11-09T17:49:17.314Z,90.08
2022-11-09T17:51:43.655Z,95.84
2022-11-09T17:54:09.982Z,93.52
2022-11-09T17:56:36.332Z,96.50
2022-11-09T17:59:03.394Z,97.90
2022-11-09T18:01:29.997Z,99.13
2022-11-09T18:03:56.422Z,100.00
2022-11-09T18:06:23.110Z,100.00
2022-11-09T18:09:09.561Z,100.00
2022-11-09T18:11:35.829Z,100.00
2022-11-09T18:14:02.553Z,98.24
2022-11-09T18:16:28.900Z,96.08
2022-11-09T18:19:01.812Z,95.47
2022-11-09T18:21:28.624Z,93.64
2022-11-09T18:23:55.361Z,94.08
2022-11-09T18:26:21.698Z,94.79
2022-11-09T18:28:48.030Z,94.42
2022-11-09T18:31:14.493Z,92.86
2022-11-09T18:33:40.995Z,93.78
2022-11-09T18:36:09.144Z,94.42
2022-11-09T18:38:36.163Z,91.76
2022-11-09T18:41:09.994Z,92.94
2022-11-09T18:43:36.318Z,92.05
2022-11-09T18:46:03.762Z,93.02
2022-11-09T18:48:30.319Z,94.78
2022-11-09T18:50:56.943Z,94.90
2022-11-09T18:53:25.127Z,94.70
2022-11-09T18:55:51.513Z,94.61
2022-11-09T18:58:18.035Z,95.50
2022-11-09T19:00:44.634Z,95.43
2022-11-09T19:03:14.820Z,95.06
2022-11-09T19:05:44.217Z,95.59
2022-11-09T19:08:10.569Z,96.00
2022-11-09T19:10:36.909Z,96.96
2022-11-09T19:13:03.630Z,96.68
2022-11-09T19:15:30.072Z,97.07
2022-11-09T19:17:56.466Z,97.09
2022-11-09T19:20:22.853Z,97.27
2022-11-09T19:22:49.255Z,97.75
2022-11-09T19:25:15.597Z,97.73
2022-11-09T19:27:42.014Z,97.87
2022-11-09T19:30:09.758Z,97.75
2022-11-09T19:32:36.328Z,97.81
2022-11-09T19:35:02.766Z,97.04
2022-11-09T19:37:29.227Z,96.94
2022-11-09T19:39:55.611Z,98.55
2022-11-09T19:42:21.983Z,98.51
2022-11-09T19:44:52.224Z,99.32
2022-11-09T19:47:22.486Z,99.74
2022-11-09T19:49:48.811Z,100.00
2022-11-09T19:52:15.148Z,100.00
2022-11-09T19:54:43.231Z,100.00
2022-11-09T19:57:09.578Z,100.00
2022-11-09T19:59:35.898Z,100.00
2022-11-09T20:02:02.346Z,100.00
2022-11-09T20:04:28.755Z,100.00
2022-11-09T20:06:55.130Z,100.00
2022-11-09T20:09:21.459Z,100.00
2022-11-09T20:12:06.660Z,100.00
2022-11-09T20:14:33.034Z,100.00
2022-11-09T20:17:03.429Z,100.00
2022-11-09T20:19:30.102Z,100.00
2022-11-09T20:21:56.471Z,99.82
2022-11-09T20:24:22.802Z,100.00
2022-11-09T20:26:49.148Z,100.00
2022-11-09T20:29:15.572Z,100.00
2022-11-09T20:31:41.977Z,100.00
2022-11-09T20:34:08.375Z,100.00
2022-11-09T20:36:35.136Z,100.00
2022-11-09T20:39:01.465Z,100.00
2022-11-09T20:41:27.929Z,100.00
2022-11-09T20:43:54.302Z,100.00
2022-11-09T20:46:21.512Z,100.00
2022-11-09T20:48:53.987Z,100.00
2022-11-09T20:51:21.180Z,100.00
2022-11-09T20:53:47.917Z,100.00
2022-11-09T20:56:14.338Z,100.00
2022-11-09T20:58:40.683Z,100.00
2022-11-09T21:01:07.104Z,100.00
2022-11-09T21:03:33.530Z,100.00
2022-11-09T21:06:00.087Z,100.00
2022-11-09T21:08:26.459Z,100.00
2022-11-09T21:10:52.868Z,100.00
2022-11-09T21:13:19.226Z,100.00
2022-11-09T21:15:45.596Z,100.00
2022-11-09T21:18:11.927Z,100.00
2022-11-09T21:20:38.319Z,100.00
2022-11-09T21:23:13.784Z,100.00
2022-11-09T21:25:59.063Z,100.00
2022-11-09T21:28:44.059Z,100.00
2022-11-09T21:31:10.380Z,100.00
2022-11-09T21:33:36.758Z,100.00
2022-11-09T21:36:09.969Z,100.00
2022-11-09T21:38:36.907Z,100.00
2022-11-09T21:41:24.238Z,100.00
2022-11-09T21:43:53.999Z,100.00
2022-11-09T21:46:20.306Z,100.00
2022-11-09T21:48:46.629Z,100.00
2022-11-09T21:51:12.969Z,100.00
2022-11-09T21:53:39.290Z,100.00
2022-11-09T21:56:06.125Z,100.00
2022-11-09T21:58:32.454Z,100.00
2022-11-09T22:01:02.306Z,100.00
2022-11-09T22:03:28.680Z,100.00
2022-11-09T22:05:54.996Z,100.00
2022-11-09T22:08:21.456Z,100.00
2022-11-09T22:10:47.816Z,100.00
2022-11-09T22:13:32.941Z,100.00
2022-11-09T22:16:07.863Z,100.00
2022-11-09T22:18:53.049Z,100.00
2022-11-09T22:21:19.623Z,100.00
2022-11-09T22:23:45.942Z,100.00
2022-11-09T22:26:12.315Z,100.00
2022-11-09T22:28:38.634Z,100.00
2022-11-09T22:31:05.202Z,100.00
2022-11-09T22:33:32.187Z,100.00
2022-11-09T22:35:59.740Z,100.00
2022-11-09T22:38:26.070Z,100.00
2022-11-09T22:40:52.546Z,100.00
2022-11-09T22:43:19.086Z,100.00
2022-11-09T22:45:45.537Z,100.00
2022-11-09T22:48:11.877Z,100.00
2022-11-09T22:50:38.259Z,100.00
2022-11-09T22:53:04.595Z,100.00
2022-11-09T22:55:30.924Z,100.00
2022-11-09T22:57:57.256Z,100.00
2022-11-09T23:00:23.589Z,100.00
2022-11-09T23:02:49.935Z,100.00
2022-11-09T23:05:16.272Z,100.00
2022-11-09T23:07:42.665Z,100.00
2022-11-09T23:10:10.273Z,100.00
2022-11-09T23:12:36.606Z,100.00
2022-11-09T23:15:06.137Z,100.00
2022-11-09T23:17:54.280Z,100.00
2022-11-09T23:20:20.915Z,100.00
2022-11-09T23:22:47.345Z,100.00
2022-11-09T23:25:32.549Z,100.00
2022-11-09T23:27:59.215Z,100.00
2022-11-09T23:30:25.581Z,100.00
2022-11-09T23:32:52.005Z,100.00
2022-11-09T23:35:18.480Z,100.00
2022-11-09T23:37:44.828Z,100.00
2022-11-09T23:40:11.376Z,100.00
2022-11-09T23:42:38.287Z,100.00
2022-11-09T23:45:04.793Z,100.00
2022-11-09T23:47:31.127Z,100.00
2022-11-09T23:49:57.456Z,100.00
2022-11-09T23:52:24.111Z,100.00
2022-11-09T23:54:50.428Z,100.00
2022-11-09T23:57:16.887Z,100.00
2022-11-09T23:59:43.212Z,100.00
